Pagrindinis puslapis
METAR-TAF:

METAR-TAF

Oro uostai :

Bobo Diulaso oro uostas

Bobo Diulasas, Burkina Fasas

platuma: 11-10N, ilguma: 004-19W, Aukštis: 460 m

Dabartinis oras

Ataskaita buvo paskelbta 54 minutes, ne 19:00 UTC
Vėjas 5 kt iš Šiaurės
Temperatūra 33°C
Drėgmė 12%
Slėgis 1009 hPa
Matomumas: 8000 m

METAR: DFOO 291900Z 35005KT 8000 NSC 33/00 Q1009

Laikas: 19:54 (19:54 UTC)

Prognozė

Ataskaita buvo paskelbta 2 valandos ir 54 minutes, ne 17:00 UTC
Prognozė galioja nuo 29 metu 18 UTC su 01 metu 18 UTC
Vėjas 8 kt nuo kintamojo kryptimis
Matomumas 10 km arba daugiau
nėra debesų žemiau 1500 m ir nėra kamuolinių lietaus debesų
Laikinai
nuo 01 metu 06 UTC su 01 metu 10 UTC
Matomumas: 4000 m
migla,

TAF: DFOO 291700Z 2918/0118 VRB08KT CAVOK TEMPO 0106/0110 4000 HZ

Orai ataskaitas ir orų prognozės (METAR, TAF).

turimą stotys yra geltonos ir raudonos taškus žemėlapyje.

Perkelti pele per norėdami pamatyti stoties vardą.

Tada spustelėkite, norėdami matyti oro stebėjimo ir prognozės.

Norėdami pakeisti žemėlapį: spustelėkite ant žalios mygtukų su juodo kryžiaus žemyn,; žalią mygtuką su brūkšneliu, jei norite nutolinti; arba žalių rodyklių gretimoms žemėlapius.


METAR-TAF: